^^
Station Historical Data
Daily Summary for August 22, 2017 Units:  Metric    English   Both
« Previous Day
Next Day »
Daily Weekly Monthly Yearly Custom
  High: Low: Average:
Temperature: 18.6 °C 6.6 °C 11.4 °C
Dew Point: 4.8 °C -2.9 °C 2.4 °C
Humidity: 81% 24% 58%
Wind Speed: 28.8km/h 6.4km/h 14.6km/h
Wind Gust: 32.2km/h - -
Wind- - SSW
Pressure: 1021.2 hPa 1017.2 hPa -
Precipitation: 0 mm    
Historical Graphs
 
 
Tabular Data for August 22, 2017
Time Temperature Dew Point Pressure Wind Wind Speed Wind Gust Humidity Rainfall Rate (Hourly) solar Conditions
00:01 11.3 °C 3.1 °C 1017.5 hPa SSW 17.7 km/h 19.3 km/h 57% 0 mm 0.0 W/m2
00:11 11.1 °C 3.1 °C 1017.5 hPa SSW 9.7 km/h 16.1 km/h 58% 0 mm 0.0 W/m2
00:21 10.8 °C 2.9 °C 1017.5 hPa SSW 9.7 km/h 11.3 km/h 58% 0 mm 0.0 W/m2
00:26 10.7 °C 2.8 °C 1017.5 hPa SSW 9.7 km/h 11.3 km/h 58% 0 mm 0.0 W/m2
00:31 10.7 °C 2.8 °C 1017.5 hPa SSW 9.7 km/h 12.9 km/h 58% 0 mm 0.0 W/m2
00:36 10.5 °C 2.6 °C 1017.5 hPa SSW 11.1 km/h 12.9 km/h 58% 0 mm 0.0 W/m2
00:41 10.4 °C 2.5 °C 1017.5 hPa SSW 14.3 km/h 14.5 km/h 58% 0 mm 0.0 W/m2
00:46 10.4 °C 2.7 °C 1017.5 hPa SSW 11.1 km/h 17.7 km/h 59% 0 mm 0.0 W/m2
00:51 10.3 °C 2.6 °C 1017.2 hPa SSW 11.1 km/h 14.5 km/h 59% 0 mm 0.0 W/m2
00:56 10.2 °C 2.8 °C 1017.5 hPa SSW 11.1 km/h 14.5 km/h 60% 0 mm 0.0 W/m2
01:01 10 °C 2.6 °C 1017.5 hPa SSW 16.3 km/h 16.3 km/h 60% 0 mm 0.0 W/m2
01:11 9.9 °C 3 °C 1017.5 hPa SSW 14.3 km/h 16.1 km/h 62% 0 mm 0.0 W/m2
01:16 9.9 °C 3.2 °C 1017.2 hPa SSW 9.7 km/h 14.5 km/h 63% 0 mm 0.0 W/m2
01:26 9.7 °C 3.2 °C 1017.5 hPa SSW 13 km/h 13 km/h 64% 0 mm 0.0 W/m2
01:36 9.6 °C 3.6 °C 1017.5 hPa SSW 11.1 km/h 16.1 km/h 66% 0 mm 0.0 W/m2
01:41 9.5 °C 3.5 °C 1017.5 hPa SSW 14.3 km/h 17.7 km/h 66% 0 mm 0.0 W/m2
01:46 9.4 °C 3.4 °C 1017.2 hPa SSW 11.1 km/h 16.1 km/h 66% 0 mm 0.0 W/m2
01:56 9.2 °C 2.7 °C 1017.5 hPa SSW 13 km/h 16.1 km/h 64% 0 mm 0.0 W/m2
02:01 9.3 °C 2.6 °C 1017.5 hPa SSW 14.3 km/h 17.7 km/h 63% 0 mm 0.0 W/m2
02:11 9.4 °C 2.9 °C 1017.2 hPa SSW 6.4 km/h 11.3 km/h 64% 0 mm 0.0 W/m2
02:17 9.3 °C 3.1 °C 1017.5 hPa SSW 7.9 km/h 12.9 km/h 65% 0 mm 0.0 W/m2
02:27 9.2 °C 2.5 °C 1017.5 hPa SSW 11.1 km/h 17.7 km/h 63% 0 mm 0.0 W/m2
02:32 9.2 °C 2.7 °C 1017.5 hPa SSW 14.3 km/h 16.1 km/h 64% 0 mm 0.0 W/m2
02:37 9.1 °C 2.6 °C 1017.5 hPa SSW 9.7 km/h 16.1 km/h 64% 0 mm 0.0 W/m2
02:42 8.9 °C 2.7 °C 1017.5 hPa SSW 11.1 km/h 12.9 km/h 65% 0 mm 0.0 W/m2
02:47 8.8 °C 2.8 °C 1017.5 hPa SSW 14.3 km/h 16.1 km/h 66% 0 mm 0.0 W/m2
02:52 8.7 °C 2.7 °C 1017.5 hPa SSW 19.5 km/h 20.9 km/h 66% 0 mm 0.0 W/m2
02:57 8.7 °C 2.7 °C 1017.5 hPa SSW 13 km/h 19.3 km/h 66% 0 mm 0.0 W/m2
03:07 8.6 °C 2.8 °C 1017.5 hPa SSW 13 km/h 16.1 km/h 67% 0 mm 0.0 W/m2
03:12 8.5 °C 2.7 °C 1017.5 hPa SSW 13 km/h 14.5 km/h 67% 0 mm 0.0 W/m2
03:17 8.4 °C 2.8 °C 1017.5 hPa SSW 13 km/h 19.3 km/h 68% 0 mm 0.0 W/m2
03:27 8.4 °C 2.8 °C 1017.5 hPa SSW 11.1 km/h 19.3 km/h 68% 0 mm 0.0 W/m2
03:37 8.3 °C 3.1 °C 1017.2 hPa SSW 14.3 km/h 14.5 km/h 70% 0 mm 0.0 W/m2
03:42 8.2 °C 3.1 °C 1017.2 hPa SSW 13 km/h 16.1 km/h 70% 0 mm 0.0 W/m2
03:47 8.1 °C 3.2 °C 1017.5 hPa SSW 16.3 km/h 16.3 km/h 71% 0 mm 0.0 W/m2
03:57 8.1 °C 4.1 °C 1017.5 hPa SSW 16.3 km/h 22.5 km/h 76% 0 mm 0.0 W/m2
04:02 8.1 °C 3.6 °C 1017.5 hPa SSW 16.3 km/h 20.9 km/h 73% 0 mm 0.0 W/m2
04:07 8 °C 3.6 °C 1017.5 hPa SSW 13 km/h 19.3 km/h 74% 0 mm 0.0 W/m2
04:22 7.7 °C 4.1 °C 1017.8 hPa SSW 17.7 km/h 19.3 km/h 78% 0 mm 0.0 W/m2
04:27 7.5 °C 4.1 °C 1017.8 hPa SSW 9.7 km/h 19.3 km/h 79% 0 mm 0.0 W/m2
04:32 7.3 °C 4.1 °C 1017.8 hPa SSW 14.3 km/h 16.1 km/h 80% 0 mm 0.0 W/m2
04:37 7.3 °C 4.1 °C 1017.8 hPa SSW 9.7 km/h 17.7 km/h 80% 0 mm 0.0 W/m2
04:47 7.2 °C 4.2 °C 1018.2 hPa SSW 14.3 km/h 16.1 km/h 81% 0 mm 0.0 W/m2
04:52 7.1 °C 4.1 °C 1018.2 hPa SSW 11.1 km/h 14.5 km/h 81% 0 mm 0.0 W/m2
05:02 7 °C 3.8 °C 1018.5 hPa SSW 7.9 km/h 9.7 km/h 80% 0 mm 0.0 W/m2
05:07 6.9 °C 3.9 °C 1018.5 hPa SSW 7.9 km/h 11.3 km/h 81% 0 mm 0.0 W/m2
05:12 6.9 °C 3.9 °C 1018.5 hPa SSW 11.1 km/h 14.5 km/h 81% 0 mm 0.0 W/m2
05:17 6.9 °C 3.9 °C 1018.5 hPa SSW 14.3 km/h 14.5 km/h 81% 0 mm 0.0 W/m2
05:22 6.8 °C 3.8 °C 1018.5 hPa SSW 11.1 km/h 16.1 km/h 81% 0 mm 0.0 W/m2
05:37 6.7 °C 3.7 °C 1018.8 hPa SSW 11.1 km/h 17.7 km/h 81% 0 mm 0.0 W/m2
05:42 6.7 °C 3.7 °C 1018.8 hPa SSW 16.3 km/h 19.3 km/h 81% 0 mm 0.0 W/m2
05:48 6.7 °C 3.7 °C 1018.8 hPa SSW 20.9 km/h 20.9 km/h 81% 0 mm 0.0 W/m2
05:53 6.7 °C 3.7 °C 1018.8 hPa SSW 9.7 km/h 16.1 km/h 81% 0 mm 0.0 W/m2
06:03 6.6 °C 3.6 °C 1018.8 hPa SSW 13 km/h 20.9 km/h 81% 0 mm 0.0 W/m2
06:13 6.8 °C 3.8 °C 1018.8 hPa SSW 13 km/h 19.3 km/h 81% 0 mm 0.0 W/m2
06:18 6.7 °C 3.5 °C 1019.2 hPa SSW 11.1 km/h 14.5 km/h 80% 0 mm 7.0 W/m2
06:23 6.7 °C 3.7 °C 1019.2 hPa SSW 9.7 km/h 12.9 km/h 81% 0 mm 9.0 W/m2
06:28 6.7 °C 3.7 °C 1019.2 hPa SSW 9.7 km/h 11.3 km/h 81% 0 mm 11.0 W/m2
06:33 6.6 °C 3.6 °C 1019.2 hPa SSW 9.7 km/h 14.5 km/h 81% 0 mm 12.0 W/m2
06:39 6.7 °C 3.7 °C 1019.2 hPa SSW 7.9 km/h 11.3 km/h 81% 0 mm 14.0 W/m2
06:48 6.9 °C 3.9 °C 1019.2 hPa SSW 11.1 km/h 11.3 km/h 81% 0 mm 28.0 W/m2
06:53 7 °C 3.8 °C 1019.5 hPa SSW 11.1 km/h 12.9 km/h 80% 0 mm 79.0 W/m2
07:00 7.1 °C 3.9 °C 1019.5 hPa SSW 13 km/h 13 km/h 80% 0 mm 97.0 W/m2
07:05 7.3 °C 3.9 °C 1019.5 hPa SSW 11.1 km/h 14.5 km/h 79% 0 mm 116.0 W/m2
07:14 7.6 °C 4 °C 1019.5 hPa SSW 11.1 km/h 12.9 km/h 78% 0 mm 156.0 W/m2
07:26 7.9 °C 3.9 °C 1019.9 hPa SSW 11.1 km/h 14.5 km/h 76% 0 mm 199.0 W/m2
07:38 8.3 °C 4.1 °C 1019.9 hPa SSW 6.4 km/h 12.9 km/h 75% 0 mm 237.0 W/m2
07:43 8.9 °C 4.3 °C 1020.2 hPa SSW 9.7 km/h 16.1 km/h 73% 0 mm 269.0 W/m2
07:58 9.4 °C 4.6 °C 1020.2 hPa SSW 16.3 km/h 20.9 km/h 72% 0 mm 316.0 W/m2
08:13 9.9 °C 4.7 °C 1020.2 hPa SSW 17.7 km/h 20.9 km/h 70% 0 mm 364.0 W/m2
08:23 10.2 °C 4.8 °C 1020.5 hPa South 17.7 km/h 27.4 km/h 69% 0 mm 394.0 W/m2
08:44 10.6 °C 4.7 °C 1020.5 hPa South 17.7 km/h 20.9 km/h 67% 0 mm 436.0 W/m2
08:58 11.2 °C 4.6 °C 1020.5 hPa South 17.7 km/h 20.9 km/h 64% 0 mm 478.0 W/m2
09:04 11.4 °C 4.6 °C 1020.5 hPa South 16.3 km/h 19.3 km/h 63% 0 mm 503.0 W/m2
09:14 11.6 °C 4.6 °C 1020.5 hPa South 16.3 km/h 20.9 km/h 62% 0 mm 529.0 W/m2
09:24 12.1 °C 4.6 °C 1020.9 hPa South 14.3 km/h 24.1 km/h 60% 0 mm 554.0 W/m2
09:38 12.3 °C 4.5 °C 1020.9 hPa South 28.8 km/h 29 km/h 59% 0 mm 577.0 W/m2
09:46 12.8 °C 4.5 °C 1021.2 hPa South 17.7 km/h 20.9 km/h 57% 0 mm 594.0 W/m2
09:57 13.1 °C 4.5 °C 1021.2 hPa South 13 km/h 29 km/h 56% 0 mm 615.0 W/m2
10:06 13.6 °C 4.5 °C 1021.2 hPa South 24.1 km/h 24.1 km/h 54% 0 mm 635.0 W/m2
12:05 15.9 °C 2.7 °C 1020.5 hPa South 13 km/h 19.3 km/h 41% 0 mm 729.0 W/m2
12:11 15.9 °C 2.3 °C 1020.5 hPa South 17.7 km/h 20.9 km/h 40% 0 mm 724.0 W/m2
12:17 16.1 °C 2.8 °C 1020.5 hPa South 13 km/h 20.9 km/h 41% 0 mm 728.0 W/m2
12:27 16.7 °C 2.3 °C 1020.5 hPa South 22.7 km/h 27.4 km/h 38% 0 mm 721.0 W/m2
12:37 16.8 °C 2.8 °C 1020.2 hPa South 14.3 km/h 24.1 km/h 39% 0 mm 712.0 W/m2
12:39 16.8 °C 2.4 °C 1020.2 hPa South 13 km/h 24.1 km/h 38% 0 mm 710.0 W/m2
12:44 16.9 °C 2.1 °C 1020.2 hPa South 14.3 km/h 24.1 km/h 37% 0 mm 707.0 W/m2
12:58 16.8 °C 2.4 °C 1019.9 hPa South 14.3 km/h 22.5 km/h 38% 0 mm 701.0 W/m2
13:04 17.1 °C 2.3 °C 1019.9 hPa South 14.3 km/h 22.5 km/h 37% 0 mm 694.0 W/m2
13:16 17.7 °C 2 °C 1019.9 hPa South 13 km/h 22.5 km/h 35% 0 mm 670.0 W/m2
13:25 18 °C 2.3 °C 1019.5 hPa South 22.7 km/h 29 km/h 35% 0 mm 656.0 W/m2
13:30 18.1 °C 2.4 °C 1019.5 hPa South 20.9 km/h 29 km/h 35% 0 mm 645.0 W/m2
13:35 18.1 °C 1.6 °C 1019.5 hPa South 16.3 km/h 22.5 km/h 33% 0 mm 638.0 W/m2
13:42 18.1 °C 0.2 °C 1019.5 hPa South 20.9 km/h 25.7 km/h 30% 0 mm 629.0 W/m2
13:45 17.9 °C 0.1 °C 1019.5 hPa South 22.7 km/h 27.4 km/h 30% 0 mm 621.0 W/m2
13:55 18.6 °C 1.6 °C 1019.2 hPa South 22.7 km/h 25.7 km/h 32% 0 mm 601.0 W/m2
14:10 18.1 °C 1.1 °C 1019.2 hPa SSE 24.1 km/h 29 km/h 32% 0 mm 566.0 W/m2
14:25 18.2 °C 2.1 °C 1019.2 hPa South 28.8 km/h 29 km/h 34% 0 mm 533.0 W/m2
14:40 18.2 °C 0.8 °C 1018.8 hPa South 28.8 km/h 30.6 km/h 31% 0 mm 494.0 W/m2
14:55 18.3 °C 0 °C 1018.8 hPa South 25.9 km/h 32.2 km/h 29% 0 mm 454.0 W/m2
15:16 18.2 °C -0.6 °C 1018.8 hPa SSW 20.9 km/h 30.6 km/h 28% 0 mm 408.0 W/m2
15:28 18.3 °C -0.5 °C 1018.8 hPa South 17.7 km/h 29 km/h 28% 0 mm 364.0 W/m2
15:48 18.2 °C -1.6 °C 1019.2 hPa South 27.4 km/h 27.4 km/h 26% 0 mm 301.0 W/m2
16:00 18 °C -2.9 °C 1019.2 hPa South 13 km/h 25.7 km/h 24% 0 mm 267.0 W/m2
16:11 17.8 °C -1.5 °C 1019.2 hPa South 20.9 km/h 25.7 km/h 27% 0 mm 232.0 W/m2
16:27 17.5 °C -2.2 °C 1019.2 hPa South 17.7 km/h 27.4 km/h 26% 0 mm 172.0 W/m2
16:52 17.1 °C -2.1 °C 1019.5 hPa South 17.7 km/h 27.4 km/h 27% 0 mm 81.0 W/m2
17:06 16.7 °C -1.9 °C 1019.5 hPa South 16.3 km/h 20.9 km/h 28% 0 mm 39.0 W/m2
17:16 16.4 °C -1.7 °C 1019.5 hPa South 24.1 km/h 24.1 km/h 29% 0 mm 16.0 W/m2
17:26 16.2 °C -1 °C 1019.5 hPa South 24.1 km/h 24.1 km/h 31% 0 mm 7.0 W/m2
17:37 15.8 °C -1.3 °C 1019.5 hPa South 19.5 km/h 22.5 km/h 31% 0 mm 0.0 W/m2
17:52 15.4 °C -1.2 °C 1019.9 hPa South 14.3 km/h 20.9 km/h 32% 0 mm 0.0 W/m2
18:37 14.4 °C -1.7 °C 1019.9 hPa South 14.3 km/h 19.3 km/h 33% 0 mm 0.0 W/m2
19:02 14 °C -1.6 °C 1020.5 hPa South 14.3 km/h 19.3 km/h 34% 0 mm 0.0 W/m2
19:18 13.5 °C -1.3 °C 1020.5 hPa South 16.3 km/h 16.3 km/h 36% 0 mm 0.0 W/m2
19:48 12.7 °C -1.3 °C 1020.5 hPa South 11.1 km/h 14.5 km/h 38% 0 mm 0.0 W/m2
20:04 12.4 °C -1.2 °C 1020.5 hPa South 7.9 km/h 14.5 km/h 39% 0 mm 0.0 W/m2
20:16 12.3 °C -0.9 °C 1020.9 hPa South 13 km/h 13 km/h 40% 0 mm 0.0 W/m2
20:26 12.2 °C -0.7 °C 1020.9 hPa South 9.7 km/h 14.5 km/h 41% 0 mm 0.0 W/m2
20:35 11.9 °C -0.6 °C 1020.9 hPa South 13 km/h 14.5 km/h 42% 0 mm 0.0 W/m2
Canyon Roadhouse, Fishriver Canyon, Namibia
Compliments of Weather Underground - 2.25 mb